Time;durP1;ratioP1;P1;durP2;ratioP2;P2;SDS_P1;SDS_P2;PMS_P1;PMS_P2;Temp;Humidity;BMP_temperature;BMP_pressure;BME280_temperature;BME280_humidity;BME280_pressure;Samples;Min_cycle;Max_cycle;Signal;HPM_P1;HPM_P2
2021/11/12 00:12:46;;;;;;;73.88;30.02;;;;;;;2.77;100.00;101141.78;5015053;28;20487;-51
2021/11/12 00:15:14;;;;;;;73.53;30.52;;;;;;;2.75;100.00;101141.81;5023655;28;20613;-52
2021/11/12 00:17:41;;;;;;;71.35;28.52;;;;;;;2.70;100.00;101133.09;5013781;28;20048;-51
2021/11/12 00:20:08;;;;;;;60.00;26.30;;;;;;;2.69;100.00;101127.88;5029141;28;20075;-54
2021/11/12 00:22:35;;;;;;;60.47;27.10;;;;;;;2.70;100.00;101124.38;5036277;28;20327;-51
2021/11/12 00:25:03;;;;;;;63.20;27.52;;;;;;;2.70;100.00;101121.75;5032815;28;20053;-53
2021/11/12 00:27:30;;;;;;;68.80;28.70;;;;;;;2.71;100.00;101120.88;5034478;28;20048;-54
2021/11/12 00:40:19;;;;;;;61.65;27.55;;;;;;;2.72;100.00;101117.41;5011716;28;20564;-52
2021/11/12 00:45:25;;;;;;;66.50;28.73;;;;;;;2.72;100.00;101117.41;5038586;28;20056;-51
2021/11/12 00:55:24;;;;;;;63.60;27.88;;;;;;;2.66;100.00;101107.84;5034746;28;20104;-52
2021/11/12 00:57:53;;;;;;;66.25;29.15;;;;;;;2.75;100.00;101122.63;5038036;28;20045;-54
2021/11/12 01:00:22;;;;;;;65.78;29.80;;;;;;;2.67;100.00;101121.78;5011974;28;20045;-53
2021/11/12 01:02:49;;;;;;;67.80;29.58;;;;;;;2.65;100.00;101116.56;5027516;28;20526;-52
2021/11/12 01:05:16;;;;;;;66.53;28.83;;;;;;;2.73;100.00;101113.91;5020608;28;20144;-51
2021/11/12 01:07:43;;;;;;;63.78;27.30;;;;;;;2.74;100.00;101108.69;5031679;28;20045;-53
2021/11/12 01:10:13;;;;;;;67.53;27.23;;;;;;;2.79;100.00;101108.66;5024441;28;20506;-53
2021/11/12 01:12:41;;;;;;;63.45;28.17;;;;;;;2.78;100.00;101106.94;5027229;28;20049;-52
2021/11/12 01:15:11;;;;;;;61.25;27.98;;;;;;;2.81;100.00;101113.03;5034350;28;20056;-52
2021/11/12 01:17:39;;;;;;;57.33;26.23;;;;;;;2.75;100.00;101107.81;5037021;28;20061;-52
2021/11/12 01:20:06;;;;;;;61.35;28.25;;;;;;;2.72;100.00;101114.78;5023391;28;20045;-52
2021/11/12 01:22:34;;;;;;;66.20;28.10;;;;;;;2.72;100.00;101107.81;5031836;28;20053;-52
2021/11/12 01:25:03;;;;;;;69.47;29.67;;;;;;;2.75;100.00;101107.81;5028502;28;20246;-51
2021/11/12 01:27:32;;;;;;;69.60;29.17;;;;;;;2.78;100.00;101102.56;5026891;28;20041;-52
2021/11/12 01:30:00;;;;;;;61.33;27.17;;;;;;;2.84;100.00;101104.25;5024386;28;20514;-52
2021/11/12 01:32:27;;;;;;;64.57;27.85;;;;;;;2.87;100.00;101109.50;5026090;28;20304;-52
2021/11/12 01:34:56;;;;;;;61.47;26.27;;;;;;;2.83;100.00;101106.00;5026166;28;20056;-57
2021/11/12 01:37:25;;;;;;;75.63;28.10;;;;;;;2.79;100.00;101093.84;5028404;28;20049;-51
2021/11/12 01:40:00;;;;;;;61.47;27.42;;;;;;;2.77;100.00;101098.22;5026682;28;20499;-54
2021/11/12 01:42:54;;;;;;;59.45;27.20;;;;;;;2.79;100.00;101100.81;5031477;28;20045;-52
2021/11/12 01:45:30;;;;;;;61.80;27.35;;;;;;;2.81;100.00;101096.47;5034234;28;20522;-52
2021/11/12 01:50:36;;;;;;;59.00;26.65;;;;;;;2.79;100.00;101087.75;5029789;28;20041;-54
2021/11/12 01:53:09;;;;;;;57.35;27.65;;;;;;;2.80;100.00;101079.03;5036352;28;20258;-52
2021/11/12 01:58:26;;;;;;;55.92;26.77;;;;;;;2.74;100.00;101079.03;5037946;28;20056;-51
2021/11/12 02:00:52;;;;;;;58.53;26.60;;;;;;;2.77;100.00;101084.25;5031856;28;20041;-52
2021/11/12 02:03:21;;;;;;;53.80;25.83;;;;;;;2.80;100.00;101086.88;5034204;28;20135;-53
2021/11/12 02:05:47;;;;;;;51.42;24.70;;;;;;;2.79;100.00;101088.63;5044318;28;20056;-53
2021/11/12 02:08:14;;;;;;;47.67;23.38;;;;;;;2.83;100.00;101092.09;5043694;28;20052;-52
2021/11/12 02:10:40;;;;;;;36.22;16.83;;;;;;;2.80;100.00;101094.72;5030591;28;20045;-53
2021/11/12 02:13:13;;;;;;;36.85;18.95;;;;;;;2.79;100.00;101092.97;5040399;28;20063;-51
2021/11/12 02:15:41;;;;;;;35.95;16.73;;;;;;;2.77;100.00;101079.91;5037687;28;20045;-52
2021/11/12 02:18:25;;;;;;;29.60;14.75;;;;;;;2.76;100.00;101082.53;5034692;28;20422;-52
2021/11/12 02:20:59;;;;;;;31.27;15.60;;;;;;;2.75;100.00;101080.78;5016823;28;20051;-51
2021/11/12 02:23:34;;;;;;;34.33;16.75;;;;;;;2.78;100.00;101084.25;5037327;28;20037;-51
2021/11/12 02:26:02;;;;;;;34.40;16.70;;;;;;;2.78;100.00;101086.00;5034598;28;20499;-52
2021/11/12 02:28:30;;;;;;;31.52;15.57;;;;;;;2.80;100.00;101087.75;5037268;28;20045;-52
2021/11/12 02:30:57;;;;;;;33.60;16.42;;;;;;;2.80;100.00;101084.25;5031215;28;20046;-52
2021/11/12 02:33:26;;;;;;;37.40;18.00;;;;;;;2.77;100.00;101085.13;5036818;28;20768;-51
2021/11/12 02:36:12;;;;;;;31.80;16.90;;;;;;;2.76;100.00;101082.53;5036715;28;20080;-51
2021/11/12 02:38:42;;;;;;;38.00;17.13;;;;;;;2.77;100.00;101079.03;5031719;28;20041;-53
2021/11/12 02:41:09;;;;;;;33.85;16.80;;;;;;;2.80;100.00;101082.50;5031501;28;20052;-53
2021/11/12 02:43:37;;;;;;;33.25;16.17;;;;;;;2.82;100.00;101085.13;5031958;28;20458;-53
2021/11/12 02:46:06;;;;;;;34.65;15.77;;;;;;;2.78;100.00;101088.63;5022390;28;20061;-52
2021/11/12 02:48:36;;;;;;;32.83;16.08;;;;;;;2.77;100.00;101089.50;5028159;28;20096;-52
2021/11/12 02:51:09;;;;;;;25.83;12.88;;;;;;;2.81;100.00;101083.38;5031589;28;20049;-51
2021/11/12 02:53:37;;;;;;;22.45;12.02;;;;;;;2.65;100.00;101055.56;5019952;28;20041;-52
2021/11/12 02:56:09;;;;;;;25.08;12.55;;;;;;;2.77;100.00;101086.88;5039013;28;20049;-59
2021/11/12 02:58:38;;;;;;;25.48;13.32;;;;;;;2.70;100.00;101083.41;5028296;28;20056;-53
2021/11/12 03:01:06;;;;;;;26.58;13.93;;;;;;;2.70;100.00;101079.91;5033917;28;20037;-52
2021/11/12 03:03:33;;;;;;;26.15;13.13;;;;;;;2.70;100.00;101078.16;5043425;28;20048;-53
2021/11/12 03:05:59;;;;;;;28.23;15.25;;;;;;;2.69;100.00;101080.78;5034102;28;20662;-51
2021/11/12 03:08:27;;;;;;;27.40;14.25;;;;;;;2.66;100.00;101092.16;5029182;28;20037;-53
2021/11/12 03:10:55;;;;;;;26.23;13.55;;;;;;;2.59;100.00;101061.66;5024598;28;20045;-53
2021/11/12 03:13:23;;;;;;;23.13;12.68;;;;;;;2.71;100.00;101079.03;5030493;28;20474;-51
2021/11/12 03:15:50;;;;;;;22.05;11.98;;;;;;;2.72;100.00;101075.56;5034138;28;20037;-52
2021/11/12 03:18:18;;;;;;;22.08;11.60;;;;;;;2.56;100.00;101060.81;5034430;28;20049;-51
2021/11/12 03:20:47;;;;;;;23.30;12.38;;;;;;;2.65;100.00;101084.31;5027188;28;20052;-51
2021/11/12 03:23:23;;;;;;;26.00;12.35;;;;;;;2.61;100.00;101079.97;5028346;28;20436;-53
2021/11/12 03:47:09;;;;;;;28.45;13.68;;;;;;;2.51;100.00;101067.81;5033713;28;20541;-52
2021/11/12 04:06:49;;;;;;;31.10;15.93;;;;;;;2.47;100.00;101072.19;5027064;28;20064;-52
2021/11/12 04:17:58;;;;;;;30.65;15.55;;;;;;;2.33;100.00;101053.06;5033578;28;20041;-52
2021/11/12 04:39:40;;;;;;;33.67;17.15;;;;;;;2.42;100.00;101038.19;5024542;28;20041;-52
2021/11/12 05:26:32;;;;;;;30.15;14.43;;;;;;;2.38;100.00;100986.81;5040995;28;20045;-52
2021/11/12 05:45:22;;;;;;;34.88;16.42;;;;;;;2.34;100.00;100987.72;5033957;28;20511;-53
2021/11/12 05:50:39;;;;;;;38.28;17.48;;;;;;;2.29;100.00;100986.84;5036671;28;20052;-53
2021/11/12 05:55:52;;;;;;;34.92;16.15;;;;;;;2.33;100.00;100978.13;5035100;28;20041;-51
2021/11/12 05:58:19;;;;;;;37.55;16.80;;;;;;;2.32;100.00;100975.53;5038283;28;20047;-52
2021/11/12 06:00:45;;;;;;;35.92;16.55;;;;;;;2.32;100.00;100981.63;5031665;28;20049;-53
2021/11/12 06:03:12;;;;;;;35.13;16.05;;;;;;;2.29;100.00;100976.41;5038712;28;20041;-51
2021/11/12 06:05:39;;;;;;;35.22;17.08;;;;;;;2.27;100.00;100967.69;5035508;28;20041;-53
2021/11/12 06:08:05;;;;;;;35.30;16.02;;;;;;;2.26;100.00;100954.63;5039900;28;20048;-53
2021/11/12 06:10:32;;;;;;;37.05;17.20;;;;;;;2.27;100.00;100959.84;5030924;28;20333;-52
2021/11/12 06:12:58;;;;;;;35.83;16.70;;;;;;;2.29;100.00;100954.63;5029237;28;20045;-50
2021/11/12 06:15:25;;;;;;;41.03;18.83;;;;;;;2.34;100.00;100958.09;5036987;28;20056;-52
2021/11/12 06:17:51;;;;;;;37.72;17.77;;;;;;;2.36;100.00;100966.81;5039048;28;20038;-53
2021/11/12 06:20:18;;;;;;;38.35;17.17;;;;;;;2.33;100.00;100969.41;5037466;28;20632;-51
2021/11/12 06:22:45;;;;;;;38.97;17.90;;;;;;;2.32;100.00;100967.69;5032115;28;20045;-52
2021/11/12 06:25:11;;;;;;;39.03;18.35;;;;;;;2.38;100.00;100971.13;5039457;28;20045;-52
2021/11/12 06:27:38;;;;;;;48.40;19.27;;;;;;;2.36;100.00;100956.34;5042391;28;20049;-53
2021/11/12 06:30:07;;;;;;;42.35;19.08;;;;;;;2.36;100.00;100962.41;5039019;28;20049;-52
2021/11/12 06:32:34;;;;;;;45.63;20.83;;;;;;;2.42;100.00;100957.16;5033032;28;20053;-52
2021/11/12 06:35:01;;;;;;;42.40;20.13;;;;;;;2.41;100.00;100950.19;5030983;28;20049;-52
2021/11/12 06:37:27;;;;;;;43.47;19.30;;;;;;;2.42;100.00;100946.72;5033329;28;20044;-51
2021/11/12 06:39:54;;;;;;;44.60;19.73;;;;;;;2.32;100.00;100923.25;5031443;28;20060;-52
2021/11/12 06:42:26;;;;;;;44.38;20.23;;;;;;;2.40;100.00;100948.47;5025403;28;20056;-51
2021/11/12 06:50:14;;;;;;;44.55;19.98;;;;;;;2.46;100.00;100947.56;5035011;28;20049;-51
2021/11/12 06:52:46;;;;;;;43.17;20.70;;;;;;;2.41;100.00;100944.97;5028467;28;20048;-53
2021/11/12 06:55:16;;;;;;;43.25;20.70;;;;;;;2.44;100.00;100944.97;5031812;28;20050;-51
2021/11/12 06:57:44;;;;;;;45.35;21.17;;;;;;;2.47;100.00;100944.09;5031477;28;20049;-55
2021/11/12 07:00:15;;;;;;;42.40;20.45;;;;;;;2.46;100.00;100945.84;5033258;28;20049;-51
2021/11/12 07:02:43;;;;;;;47.28;20.60;;;;;;;2.46;100.00;100942.34;5025938;28;20045;-51
2021/11/12 07:05:10;;;;;;;44.83;21.30;;;;;;;2.45;100.00;100949.31;5031995;28;20128;-53
2021/11/12 07:07:37;;;;;;;52.80;22.77;;;;;;;2.49;100.00;100949.31;5031007;28;20582;-54
2021/11/12 07:10:06;;;;;;;50.35;22.70;;;;;;;2.46;100.00;100938.00;5034554;28;20473;-53
2021/11/12 07:12:32;;;;;;;49.97;21.33;;;;;;;2.59;100.00;100948.38;5026471;28;20041;-52
2021/11/12 07:14:59;;;;;;;47.25;22.30;;;;;;;2.59;100.00;100953.59;5029333;28;20044;-52
2021/11/12 07:17:25;;;;;;;51.40;22.45;;;;;;;2.59;100.00;100959.69;5035181;28;20052;-51
2021/11/12 07:19:52;;;;;;;47.80;21.38;;;;;;;2.61;100.00;100967.53;5034316;28;20460;-51
2021/11/12 07:22:19;;;;;;;49.95;21.83;;;;;;;2.60;100.00;100971.03;5028953;28;20045;-53
2021/11/12 07:24:45;;;;;;;52.83;22.08;;;;;;;2.62;100.00;100970.16;5030592;28;20054;-53
2021/11/12 07:27:13;;;;;;;58.28;23.85;;;;;;;2.72;100.00;100966.59;5035407;28;20049;-53
2021/11/12 07:30:00;;;;;;;61.45;24.17;;;;;;;2.80;100.00;100967.44;5031363;28;20403;-52
2021/11/12 07:32:27;;;;;;;57.75;23.67;;;;;;;2.83;100.00;100966.53;5031479;28;20049;-52
2021/11/12 07:34:56;;;;;;;60.25;24.83;;;;;;;2.92;100.00;100966.47;5034240;28;20054;-52
2021/11/12 07:37:27;;;;;;;56.88;24.25;;;;;;;2.94;100.00;100962.09;5028634;28;20060;-51
2021/11/12 07:39:53;;;;;;;60.90;24.00;;;;;;;2.96;100.00;100967.34;5031873;28;20045;-52
2021/11/12 07:47:22;;;;;;;55.63;22.98;;;;;;;2.92;100.00;100963.00;5032904;28;20049;-53
2021/11/12 07:49:58;;;;;;;53.17;22.60;;;;;;;2.92;100.00;100970.84;5031234;28;20128;-51
2021/11/12 07:52:28;;;;;;;57.35;24.35;;;;;;;2.95;100.00;100979.53;5026837;28;20049;-53
2021/11/12 07:54:55;;;;;;;54.88;23.80;;;;;;;2.81;100.00;100955.22;5033346;28;20041;-53
2021/11/12 07:57:23;;;;;;;51.67;22.48;;;;;;;2.92;100.00;100965.59;5032615;28;20049;-52
2021/11/12 07:59:49;;;;;;;50.90;23.13;;;;;;;2.90;100.00;100965.63;5029940;28;20048;-53
2021/11/12 08:02:17;;;;;;;54.40;23.73;;;;;;;2.90;100.00;100970.84;5025916;28;20045;-51
2021/11/12 08:04:45;;;;;;;51.50;24.60;;;;;;;2.89;100.00;100966.50;5028654;28;20043;-53
2021/11/12 08:07:12;;;;;;;50.65;23.85;;;;;;;2.81;100.00;100960.44;5034100;28;20044;-53
2021/11/12 08:09:49;;;;;;;55.83;25.52;;;;;;;2.81;100.00;100958.72;5039017;28;20559;-53
2021/11/12 08:12:36;;;;;;;59.67;24.50;;;;;;;2.80;100.00;100953.47;5013140;28;20125;-54
2021/11/12 08:18:12;;;;;;;42.60;21.33;;;;;;;2.90;100.00;100936.84;4992775;28;20049;-53
2021/11/12 08:20:53;;;;;;;43.03;19.88;;;;;;;2.92;100.00;100942.94;5036930;28;20051;-58
2021/11/12 08:23:49;;;;;;;41.55;20.40;;;;;;;2.95;100.00;100937.69;5018105;28;20045;-53
2021/11/12 08:34:28;;;;;;;43.75;20.95;;;;;;;2.88;100.00;100949.06;5032762;28;20127;-51
2021/11/12 08:37:07;;;;;;;40.10;19.13;;;;;;;2.78;100.00;100948.25;5031558;28;20041;-52
2021/11/12 08:39:49;;;;;;;39.58;19.80;;;;;;;2.80;100.00;100943.88;5030495;28;20055;-51
2021/11/12 08:42:22;;;;;;;42.42;20.02;;;;;;;2.83;100.00;100945.63;5027265;28;20505;-51
2021/11/12 08:45:13;;;;;;;40.38;18.73;;;;;;;2.82;100.00;100941.28;5030003;28;20083;-51
2021/11/12 08:47:41;;;;;;;42.10;19.10;;;;;;;2.77;100.00;100930.81;5032238;28;20164;-50
2021/11/12 08:50:15;;;;;;;45.17;19.02;;;;;;;2.70;100.00;100929.13;5036750;28;20724;-52
2021/11/12 08:52:43;;;;;;;39.20;19.38;;;;;;;2.62;100.00;100928.31;5028921;28;20051;-53
2021/11/12 08:55:09;;;;;;;41.50;20.10;;;;;;;2.63;100.00;100937.91;5032573;28;20041;-54
2021/11/12 08:57:37;;;;;;;40.95;18.65;;;;;;;2.67;100.00;100921.31;5038230;28;20052;-53
2021/11/12 09:00:06;;;;;;;38.90;19.67;;;;;;;2.67;100.00;100921.31;5036383;28;20052;-51
2021/11/12 09:02:32;;;;;;;39.63;18.98;;;;;;;2.72;100.00;100935.22;5028923;28;20057;-50
2021/11/12 09:04:59;;;;;;;41.75;19.90;;;;;;;2.69;100.00;100942.19;5037717;28;20095;-53
2021/11/12 09:07:28;;;;;;;43.47;18.88;;;;;;;2.61;100.00;100917.84;5037242;28;20050;-52
2021/11/12 09:09:56;;;;;;;40.67;18.80;;;;;;;2.77;100.00;100932.56;5040771;28;20041;-52
2021/11/12 09:12:31;;;;;;;40.92;19.10;;;;;;;2.77;100.00;100927.34;5034894;28;20351;-51
2021/11/12 09:15:00;;;;;;;39.78;19.70;;;;;;;2.75;100.00;100926.47;5032662;28;20052;-53
2021/11/12 09:17:29;;;;;;;49.30;20.80;;;;;;;2.66;100.00;100924.81;5040475;28;20095;-53
2021/11/12 09:20:09;;;;;;;47.75;20.80;;;;;;;2.68;100.00;100923.03;5035844;28;20057;-53
2021/11/12 09:22:36;;;;;;;43.33;20.27;;;;;;;2.75;100.00;100923.88;5032680;28;20045;-52
2021/11/12 09:25:03;;;;;;;45.08;19.85;;;;;;;2.75;100.00;100924.75;5041952;28;20349;-51
2021/11/12 09:27:30;;;;;;;44.58;19.25;;;;;;;2.67;100.00;100918.72;5036141;28;20455;-51
2021/11/12 09:29:56;;;;;;;47.72;21.08;;;;;;;2.65;100.00;100916.97;5039019;28;20048;-54
2021/11/12 09:32:23;;;;;;;44.50;20.25;;;;;;;2.69;100.00;100919.53;5032262;28;20064;-52
2021/11/12 09:34:50;;;;;;;43.00;20.08;;;;;;;2.76;100.00;100915.16;5035878;28;20034;-52
2021/11/12 09:37:21;;;;;;;45.08;21.42;;;;;;;2.82;100.00;100904.66;5036636;28;20045;-52
2021/11/12 09:39:57;;;;;;;42.78;20.13;;;;;;;2.81;100.00;100898.56;5033617;28;20088;-51
2021/11/12 09:42:26;;;;;;;44.80;20.90;;;;;;;2.79;100.00;100900.31;5029267;28;20040;-53
2021/11/12 09:44:53;;;;;;;45.78;21.77;;;;;;;2.73;100.00;100900.34;5030725;28;20045;-51
2021/11/12 09:47:24;;;;;;;43.58;21.65;;;;;;;2.72;100.00;100901.22;5035193;28;20045;-52
2021/11/12 09:49:57;;;;;;;49.30;23.00;;;;;;;2.75;100.00;100909.03;5033780;28;20045;-53
2021/11/12 09:52:25;;;;;;;47.40;22.45;;;;;;;2.80;100.00;100909.91;5033132;28;20090;-58
2021/11/12 09:54:53;;;;;;;45.15;21.10;;;;;;;2.85;100.00;100911.59;5040205;28;20507;-51
2021/11/12 09:57:21;;;;;;;41.47;20.15;;;;;;;2.85;100.00;100915.06;5042315;28;20053;-54
2021/11/12 09:59:55;;;;;;;42.58;21.52;;;;;;;2.83;100.00;100910.75;5031406;28;20076;-52
2021/11/12 10:02:21;;;;;;;42.92;20.90;;;;;;;2.81;100.00;100914.25;5032649;28;20046;-54
2021/11/12 10:04:49;;;;;;;42.47;22.02;;;;;;;2.81;100.00;100908.16;5032581;28;20084;-52
2021/11/12 10:07:20;;;;;;;;;;;;;;;2.79;100.00;100902.06;5038219;28;20445;-52
2021/11/12 10:10:01;;;;;;;46.83;20.90;;;;;;;2.79;100.00;100900.31;5036145;28;19920;-51
2021/11/12 10:12:54;;;;;;;49.47;23.77;;;;;;;2.80;100.00;100888.97;5027936;28;20045;-52
2021/11/12 10:15:30;;;;;;;44.95;22.90;;;;;;;2.83;100.00;100881.97;5030098;28;20045;-53
2021/11/12 10:18:11;;;;;;;46.78;22.40;;;;;;;2.85;100.00;100875.84;5036854;28;20498;-57
2021/11/12 10:20:37;;;;;;;53.00;23.70;;;;;;;2.85;100.00;100878.44;5035867;28;20136;-52
2021/11/12 10:23:16;;;;;;;47.92;23.45;;;;;;;2.86;99.97;100880.19;5033410;28;20053;-53
2021/11/12 10:26:03;;;;;;;50.05;24.42;;;;;;;2.83;100.00;100875.00;5033426;28;20064;-52
2021/11/12 10:28:42;;;;;;;46.08;22.90;;;;;;;2.81;99.10;100877.63;5032872;28;20052;-59
2021/11/12 10:31:11;;;;;;;41.83;20.88;;;;;;;2.80;99.43;100862.81;5037089;28;20189;-53
2021/11/12 10:33:39;;;;;;;48.47;22.35;;;;;;;2.81;99.80;100848.00;5030517;28;20048;-52
2021/11/12 10:36:07;;;;;;;46.55;22.83;;;;;;;2.78;100.00;100858.47;5032234;28;20037;-53
2021/11/12 10:38:40;;;;;;;49.35;22.27;;;;;;;2.81;100.00;100848.84;5041962;28;20052;-54
2021/11/12 10:41:25;;;;;;;51.00;23.38;;;;;;;2.87;99.86;100845.31;5035587;28;20048;-52
2021/11/12 10:43:52;;;;;;;46.88;22.15;;;;;;;2.94;100.00;100849.63;5028928;28;20037;-52
2021/11/12 10:46:41;;;;;;;48.53;23.10;;;;;;;2.97;99.72;100848.72;5032862;28;20045;-53
2021/11/12 10:49:25;;;;;;;49.80;22.60;;;;;;;2.94;99.43;100844.38;5034239;28;20041;-54
2021/11/12 10:52:20;;;;;;;49.45;22.95;;;;;;;2.91;99.88;100836.56;5029519;28;20041;-53
2021/11/12 10:55:05;;;;;;;52.83;23.67;;;;;;;2.92;100.00;100833.06;5030071;28;20045;-53
2021/11/12 10:57:39;;;;;;;50.25;24.15;;;;;;;2.93;100.00;100831.31;5038659;28;20042;-52
2021/11/12 11:00:45;;;;;;;50.95;24.13;;;;;;;2.96;100.00;100823.44;5034914;28;20053;-57
2021/11/12 11:03:19;;;;;;;47.65;23.10;;;;;;;2.97;100.00;100815.59;5018903;28;20041;-52
2021/11/12 11:05:54;;;;;;;49.40;23.50;;;;;;;2.99;100.00;100812.97;5030089;28;20141;-53
2021/11/12 11:08:26;;;;;;;50.28;23.73;;;;;;;2.85;99.13;100778.19;5017256;28;20041;-52
2021/11/12 11:11:02;;;;;;;54.63;25.88;;;;;;;2.83;99.46;100786.09;5034758;28;20044;-52
2021/11/12 11:13:37;;;;;;;51.30;25.00;;;;;;;2.77;100.00;100781.75;5028990;28;20092;-52
2021/11/12 11:16:06;;;;;;;54.47;26.27;;;;;;;2.78;100.00;100773.03;5029622;28;20041;-51
2021/11/12 11:18:39;;;;;;;57.33;26.15;;;;;;;2.84;100.00;100772.09;5035177;28;20136;-54
2021/11/12 11:23:55;;;;;;;49.30;25.30;;;;;;;2.96;100.00;100765.91;5027384;28;20052;-53
2021/11/12 11:26:50;;;;;;;48.33;23.67;;;;;;;3.02;100.00;100774.53;5031313;28;20045;-53
2021/11/12 11:29:22;;;;;;;46.22;24.55;;;;;;;2.97;99.54;100762.41;5016215;28;20053;-53
2021/11/12 11:31:54;;;;;;;47.00;23.73;;;;;;;3.02;99.68;100764.06;5038636;28;20045;-53
2021/11/12 11:34:22;;;;;;;49.85;25.05;;;;;;;2.97;99.38;100772.88;5034563;28;20045;-52
2021/11/12 11:36:50;;;;;;;44.13;22.42;;;;;;;2.95;99.41;100775.50;5030160;28;20128;-53
2021/11/12 11:39:18;;;;;;;50.42;24.25;;;;;;;2.86;99.89;100767.72;5037597;28;20068;-52
2021/11/12 11:41:46;;;;;;;48.92;24.25;;;;;;;2.86;100.00;100774.69;5031102;28;20473;-52
2021/11/12 11:44:17;;;;;;;45.22;23.67;;;;;;;2.89;99.60;100764.22;5024172;28;20052;-52
2021/11/12 11:46:48;;;;;;;46.28;24.02;;;;;;;2.86;99.29;100775.56;5028819;28;20044;-55
2021/11/12 11:49:17;;;;;;;46.10;23.60;;;;;;;2.83;100.00;100773.00;5029889;28;20071;-51
2021/11/12 11:51:53;;;;;;;52.55;24.20;;;;;;;2.80;100.00;100771.28;5029279;28;20138;-53
2021/11/12 11:54:21;;;;;;;47.63;23.30;;;;;;;2.78;100.00;100777.41;5030081;28;20059;-50
2021/11/12 11:56:54;;;;;;;47.45;23.00;;;;;;;2.76;100.00;100771.31;5033562;28;20398;-51
2021/11/12 11:59:32;;;;;;;45.80;21.80;;;;;;;2.80;100.00;100773.03;5027599;28;20499;-52
2021/11/12 12:02:01;;;;;;;45.75;21.40;;;;;;;2.79;99.43;100772.16;5027661;28;20521;-52
2021/11/12 12:04:36;;;;;;;44.70;22.92;;;;;;;2.83;99.83;100773.00;5026129;28;20056;-52
2021/11/12 12:07:15;;;;;;;49.47;23.80;;;;;;;2.79;100.00;100773.91;5029148;28;20099;-56
2021/11/12 12:10:00;;;;;;;47.30;23.55;;;;;;;2.75;100.00;100766.97;5028867;28;20128;-55
2021/11/12 12:12:29;;;;;;;48.47;24.15;;;;;;;2.83;99.63;100766.00;5028634;28;20475;-53
2021/11/12 12:15:17;;;;;;;43.03;22.20;;;;;;;2.64;98.91;100732.22;5026295;28;20045;-51
2021/11/12 12:17:49;;;;;;;44.97;23.73;;;;;;;2.83;98.89;100758.16;5036197;28;20079;-53
2021/11/12 12:31:07;;;;;;;40.25;21.10;;;;;;;2.73;99.64;100747.78;5033209;28;20772;-53
2021/11/12 13:20:26;;;;;;;56.63;25.60;;;;;;;2.49;99.51;100729.75;5009661;28;20507;-53
2021/11/12 13:25:41;;;;;;;57.20;25.50;;;;;;;2.53;100.00;100745.34;5010937;28;20046;-52
2021/11/12 13:28:08;;;;;;;51.25;24.98;;;;;;;2.51;100.00;100736.69;5008875;28;20414;-52
2021/11/12 13:30:35;;;;;;;52.38;24.48;;;;;;;2.36;99.51;100727.19;5005839;28;20060;-49
2021/11/12 13:33:03;;;;;;;53.65;25.08;;;;;;;2.31;100.00;100722.91;5010641;28;20427;-53
2021/11/12 13:35:35;;;;;;;57.47;26.70;;;;;;;2.13;100.00;100691.69;5005681;28;20054;-52
2021/11/12 13:38:04;;;;;;;53.08;25.80;;;;;;;2.27;100.00;100711.59;5006796;28;20056;-53
2021/11/12 13:40:34;;;;;;;54.63;25.48;;;;;;;2.33;100.00;100708.97;5011045;28;20204;-53
2021/11/12 13:43:01;;;;;;;52.15;25.33;;;;;;;2.21;100.00;100700.31;5009396;28;20063;-51
2021/11/12 13:45:29;;;;;;;56.78;25.42;;;;;;;2.35;100.00;100727.25;5009862;28;20414;-52
2021/11/12 13:48:14;;;;;;;51.40;25.30;;;;;;;2.29;100.00;100727.28;5014620;28;20068;-52
2021/11/12 13:50:50;;;;;;;56.10;25.75;;;;;;;2.15;100.00;100690.81;5033901;28;20045;-53
2021/11/12 13:53:17;;;;;;;56.88;26.13;;;;;;;2.24;100.00;100710.75;5033054;28;20241;-53
2021/11/12 13:55:45;;;;;;;53.55;24.80;;;;;;;2.24;100.00;100705.53;5031897;28;20070;-53
2021/11/12 13:58:21;;;;;;;63.40;28.15;;;;;;;2.19;100.00;100702.97;5031388;28;20050;-52
2021/11/12 14:00:48;;;;;;;62.63;27.23;;;;;;;2.18;100.00;100701.25;5033476;28;20049;-52
2021/11/12 14:03:18;;;;;;;58.75;26.83;;;;;;;2.21;100.00;100695.97;5028850;28;20049;-52
2021/11/12 14:05:57;;;;;;;60.10;27.10;;;;;;;2.26;100.00;100699.41;5026247;28;20079;-54
2021/11/12 14:08:34;;;;;;;58.05;26.30;;;;;;;2.32;100.00;100699.38;5029295;28;20048;-51
2021/11/12 14:11:03;;;;;;;55.88;25.42;;;;;;;2.37;100.00;100692.34;5034584;28;20049;-53
2021/11/12 14:13:41;;;;;;;57.53;26.38;;;;;;;2.33;100.00;100695.91;5027228;28;20347;-53
2021/11/12 14:16:25;;;;;;;62.00;29.10;;;;;;;2.27;100.00;100711.59;5026657;28;20406;-52
2021/11/12 14:21:39;;;;;;;64.15;28.92;;;;;;;2.20;100.00;100704.72;5033799;28;20060;-51
2021/11/12 14:46:40;;;;;;;58.53;27.83;;;;;;;2.32;100.00;100673.25;5007759;28;20042;-53
2021/11/12 14:49:23;;;;;;;59.05;27.67;;;;;;;2.30;100.00;100669.78;5010383;28;20056;-55
2021/11/12 14:54:29;;;;;;;65.50;29.45;;;;;;;2.29;100.00;100668.03;5013957;28;20045;-54
2021/11/12 14:56:57;;;;;;;67.70;29.13;;;;;;;2.22;100.00;100665.47;5035494;28;20128;-52
2021/11/12 14:59:24;;;;;;;64.88;29.30;;;;;;;2.17;100.00;100657.72;5030627;28;20053;-51
2021/11/12 15:01:51;;;;;;;64.82;28.48;;;;;;;2.12;100.00;100638.59;5027172;28;20050;-51
2021/11/12 15:04:18;;;;;;;72.93;31.27;;;;;;;2.15;100.00;100637.69;5028512;28;20132;-51
2021/11/12 15:06:45;;;;;;;67.80;29.20;;;;;;;2.28;100.00;100658.47;5027843;28;20107;-50
2021/11/12 15:11:39;;;;;;;68.65;29.98;;;;;;;2.11;100.00;100652.53;5028792;28;20045;-51
2021/11/12 15:14:12;;;;;;;80.65;32.55;;;;;;;2.02;100.00;100653.47;5026205;28;20042;-52
2021/11/12 15:16:58;;;;;;;82.28;33.95;;;;;;;1.98;100.00;100657.00;5028500;28;20970;-52
2021/11/12 15:19:26;;;;;;;72.68;30.40;;;;;;;2.02;100.00;100663.06;5032604;28;20049;-51
2021/11/12 15:24:32;;;;;;;74.78;31.35;;;;;;;2.02;100.00;100644.78;5029779;28;20470;-53
2021/11/12 15:27:15;;;;;;;83.60;32.70;;;;;;;2.17;100.00;100656.84;5027227;28;20407;-52
2021/11/12 15:29:48;;;;;;;77.32;29.80;;;;;;;2.20;100.00;100659.44;5036647;28;20041;-51
2021/11/12 15:32:23;;;;;;;77.78;30.85;;;;;;;2.13;100.00;100647.28;5027969;28;20406;-51
2021/11/12 15:34:53;;;;;;;77.63;32.15;;;;;;;2.24;100.00;100659.38;5027110;28;20052;-53
2021/11/12 15:39:57;;;;;;;72.80;30.48;;;;;;;2.22;100.00;100660.25;5029382;28;20056;-51
2021/11/12 15:42:44;;;;;;;74.05;30.40;;;;;;;2.28;100.00;100666.31;5027070;28;20067;-52
2021/11/12 15:45:24;;;;;;;80.85;33.40;;;;;;;2.24;100.00;100658.50;5026172;28;20072;-52
2021/11/12 15:47:54;;;;;;;69.07;31.50;;;;;;;2.22;100.00;100671.56;5032485;28;20048;-52
2021/11/12 15:51:22;;;;;;;70.05;29.70;;;;;;;2.25;100.00;100662.84;5037597;28;20064;-51
2021/11/12 16:06:32;;;;;;;85.88;33.20;;;;;;;2.18;100.00;100653.34;5005458;28;20495;-53
2021/11/12 16:09:09;;;;;;;80.07;32.70;;;;;;;2.11;100.00;100629.00;5015219;28;20554;-52
2021/11/12 16:14:42;;;;;;;81.03;32.05;;;;;;;2.22;100.00;100647.19;5013980;28;20049;-52
2021/11/12 16:20:09;;;;;;;77.90;31.25;;;;;;;2.13;100.00;100658.59;5032544;28;20046;-52
2021/11/12 16:25:16;;;;;;;74.13;29.60;;;;;;;2.18;100.00;100659.44;5025496;28;20182;-53
2021/11/12 16:27:52;;;;;;;72.55;29.40;;;;;;;2.24;100.00;100655.88;5032960;28;20048;-52
2021/11/12 16:30:22;;;;;;;83.57;31.27;;;;;;;2.25;100.00;100655.88;5022113;28;20045;-52
2021/11/12 16:32:51;;;;;;;83.22;32.75;;;;;;;2.23;100.00;100662.88;5038100;28;20045;-51
2021/11/12 16:35:21;;;;;;;80.82;30.98;;;;;;;2.31;100.00;100654.97;5032821;28;20053;-51
2021/11/12 16:37:52;;;;;;;91.45;30.83;;;;;;;2.31;100.00;100649.75;5037178;28;20245;-52
2021/11/12 16:40:26;;;;;;;;;;;;;;;2.26;100.00;100647.16;5037483;28;20467;-51